Time;durP1;ratioP1;P1;durP2;ratioP2;P2;SDS_P1;SDS_P2;PMS_P1;PMS_P2;Temp;Humidity;BMP_temperature;BMP_pressure;BME280_temperature;BME280_humidity;BME280_pressure;Samples;Min_cycle;Max_cycle;Signal;HPM_P1;HPM_P2
2022/09/22 00:01:14;;;;;;;49.10;27.00;;;;;;;7.18;100.00;102474.53;6153863;23;20517;-92
2022/09/22 00:03:42;;;;;;;50.63;27.42;;;;;;;7.31;100.00;102499.69;6153720;23;20016;-93
2022/09/22 00:06:16;;;;;;;51.17;27.80;;;;;;;7.32;100.00;102500.56;6154012;23;20001;-93
2022/09/22 00:08:47;;;;;;;50.28;27.67;;;;;;;7.15;100.00;102477.09;6151876;23;20001;-92
2022/09/22 00:11:16;;;;;;;51.65;27.63;;;;;;;7.19;100.00;102491.75;6149940;23;20400;-93
2022/09/22 00:13:51;;;;;;;54.63;28.40;;;;;;;7.12;100.00;102490.78;6151258;23;20332;-93
2022/09/22 00:16:21;;;;;;;54.55;28.30;;;;;;;7.18;100.00;102505.50;6151016;23;20009;-92
2022/09/22 00:18:47;;;;;;;54.28;29.48;;;;;;;7.13;100.00;102494.25;6149955;23;20455;-93
2022/09/22 00:21:16;;;;;;;56.50;28.70;;;;;;;7.17;100.00;102505.47;6152537;23;20001;-92
2022/09/22 00:23:47;;;;;;;54.38;28.95;;;;;;;7.07;100.00;102486.41;6150894;23;20005;-93
2022/09/22 00:26:18;;;;;;;51.92;28.13;;;;;;;7.13;100.00;102492.53;6151101;23;21067;-93
2022/09/22 00:28:46;;;;;;;47.20;26.48;;;;;;;7.07;100.00;102484.69;6150016;23;20448;-89
2022/09/22 00:31:16;;;;;;;46.97;26.38;;;;;;;6.95;100.00;102470.72;6151983;23;20458;-89
2022/09/22 00:33:45;;;;;;;48.30;25.75;;;;;;;7.10;100.00;102495.03;6150632;23;20006;-89
2022/09/22 00:36:11;;;;;;;45.05;25.02;;;;;;;6.95;100.00;102483.63;6150957;23;20002;-89
2022/09/22 00:38:39;;;;;;;48.72;25.30;;;;;;;6.88;100.00;102474.03;6149532;23;20009;-89
2022/09/22 00:41:05;;;;;;;42.63;25.05;;;;;;;6.86;100.00;102468.84;6150561;23;20001;-90
2022/09/22 00:43:35;;;;;;;46.03;24.15;;;;;;;6.86;100.00;102466.28;6151952;23;20012;-89
2022/09/22 00:46:27;;;;;;;40.78;24.85;;;;;;;6.99;100.00;102487.97;6150107;23;20340;-90
2022/09/22 00:49:02;;;;;;;41.17;23.05;;;;;;;6.84;100.00;102452.47;6149595;23;20001;-90
2022/09/22 00:51:33;;;;;;;42.20;23.65;;;;;;;6.97;100.00;102482.78;6151739;23;20077;-90
2022/09/22 00:54:01;;;;;;;48.08;25.17;;;;;;;6.88;100.00;102477.50;6174621;23;20006;-90
2022/09/22 00:56:33;;;;;;;44.08;24.33;;;;;;;7.00;100.00;102492.28;6150884;23;20517;-89
2022/09/22 00:59:11;;;;;;;43.80;23.92;;;;;;;6.90;100.00;102477.50;6149231;23;20432;-93
2022/09/22 01:01:38;;;;;;;44.13;23.90;;;;;;;6.87;100.00;102468.03;6150656;23;20063;-93
2022/09/22 01:04:04;;;;;;;45.17;24.45;;;;;;;6.73;100.00;102439.44;6149632;23;20101;-94
2022/09/22 01:06:30;;;;;;;42.78;23.67;;;;;;;6.77;100.00;102455.78;6148519;23;20051;-93
2022/09/22 01:08:56;;;;;;;41.00;24.35;;;;;;;6.80;100.00;102465.31;6149912;23;20009;-93
2022/09/22 01:11:26;;;;;;;44.13;23.77;;;;;;;6.73;100.00;102451.44;6174552;23;20014;-92
2022/09/22 01:14:10;;;;;;;41.53;24.13;;;;;;;6.88;100.00;102469.75;6150710;23;20428;-92
2022/09/22 01:16:48;;;;;;;42.75;23.50;;;;;;;6.86;100.00;102473.13;6151713;23;19997;-92
2022/09/22 01:19:25;;;;;;;39.22;21.80;;;;;;;6.81;100.00;102465.34;6174544;23;20020;-92
2022/09/22 01:22:06;;;;;;;39.53;21.98;;;;;;;6.79;100.00;102467.00;6150305;23;20005;-93
2022/09/22 01:24:51;;;;;;;37.13;21.92;;;;;;;6.64;100.00;102438.38;6150025;23;20006;-93
2022/09/22 01:27:30;;;;;;;38.38;22.02;;;;;;;6.60;100.00;102434.03;6147421;23;20355;-93
2022/09/22 01:30:21;;;;;;;38.92;22.38;;;;;;;6.72;100.00;102454.84;6150021;23;20363;-90
2022/09/22 01:33:30;;;;;;;37.38;21.33;;;;;;;6.59;100.00;102440.88;6151029;23;20001;-90
2022/09/22 01:35:56;;;;;;;37.15;20.75;;;;;;;6.66;100.00;102455.63;6151142;23;20380;-89
2022/09/22 01:38:59;;;;;;;37.13;21.02;;;;;;;6.51;100.00;102423.53;6150338;23;20510;-90
2022/09/22 01:41:57;;;;;;;35.90;20.70;;;;;;;6.64;100.00;102451.25;6150719;23;20005;-90
2022/09/22 01:44:33;;;;;;;35.35;21.25;;;;;;;6.51;100.00;102432.16;6174149;23;20543;-90
2022/09/22 01:47:18;;;;;;;39.65;21.23;;;;;;;6.52;100.00;102433.00;6149381;23;20002;-89
2022/09/22 01:49:53;;;;;;;34.60;20.67;;;;;;;6.48;100.00;102431.25;6152198;23;20005;-90
2022/09/22 01:52:24;;;;;;;39.08;21.42;;;;;;;6.59;100.00;102442.59;6151493;23;20044;-90
2022/09/22 01:55:01;;;;;;;36.00;20.77;;;;;;;6.45;100.00;102426.00;6149725;23;20012;-89
2022/09/22 01:57:43;;;;;;;36.05;20.85;;;;;;;6.41;100.00;102413.94;6151264;23;20031;-90
2022/09/22 02:00:10;;;;;;;35.75;20.17;;;;;;;6.32;100.00;102394.03;6149269;23;20014;-93
2022/09/22 02:03:08;;;;;;;35.92;20.67;;;;;;;6.29;100.00;102402.53;6151291;23;20377;-93
2022/09/22 02:05:57;;;;;;;37.58;20.63;;;;;;;6.34;100.00;102410.38;6149637;23;20009;-93
2022/09/22 02:08:38;;;;;;;35.85;19.52;;;;;;;6.40;100.00;102418.22;6149275;23;20009;-94
2022/09/22 02:11:12;;;;;;;35.58;20.52;;;;;;;6.28;100.00;102408.53;6149468;23;20015;-93
2022/09/22 02:13:39;;;;;;;37.42;20.25;;;;;;;6.42;100.00;102428.50;6149397;23;20072;-93
2022/09/22 02:16:12;;;;;;;36.83;20.60;;;;;;;6.39;100.00;102429.34;6174035;23;20012;-93
2022/09/22 02:18:50;;;;;;;37.45;20.17;;;;;;;6.39;100.00;102421.63;6151194;23;20005;-93
2022/09/22 02:21:17;;;;;;;36.55;20.33;;;;;;;6.20;100.00;102389.50;6174722;23;20080;-92
2022/09/22 02:23:45;;;;;;;38.80;20.58;;;;;;;6.30;100.00;102408.56;6149909;23;20006;-93
2022/09/22 02:26:22;;;;;;;40.78;21.35;;;;;;;6.32;100.00;102405.19;6149950;23;20005;-92
2022/09/22 02:28:50;;;;;;;35.58;20.13;;;;;;;6.33;100.00;102413.78;6149665;23;20374;-93
2022/09/22 02:31:17;;;;;;;35.50;20.35;;;;;;;6.30;100.00;102408.56;6149700;23;20490;-93
2022/09/22 02:33:45;;;;;;;35.90;20.17;;;;;;;6.23;100.00;102401.56;6149461;23;20005;-93
2022/09/22 02:36:29;;;;;;;32.10;19.73;;;;;;;6.31;100.00;102413.75;6151705;23;20084;-93
2022/09/22 02:39:01;;;;;;;33.85;20.50;;;;;;;6.29;100.00;102407.69;6153159;23;20013;-92
2022/09/22 02:41:39;;;;;;;35.88;20.38;;;;;;;6.29;100.00;102409.41;6157222;23;20340;-93
2022/09/22 02:44:18;;;;;;;36.33;19.30;;;;;;;6.07;100.00;102374.69;6152157;23;20336;-93
2022/09/22 02:47:18;;;;;;;34.22;19.83;;;;;;;6.18;100.00;102393.75;6151576;23;20080;-93
2022/09/22 02:49:47;;;;;;;36.08;19.77;;;;;;;6.12;100.00;102387.63;6130993;23;20071;-94
2022/09/22 02:52:13;;;;;;;36.72;20.10;;;;;;;6.01;100.00;102377.09;6152171;23;20009;-93
2022/09/22 02:54:49;;;;;;;33.97;19.80;;;;;;;6.07;100.00;102395.25;6153037;23;20398;-93
2022/09/22 02:57:14;;;;;;;34.88;20.40;;;;;;;6.08;100.00;102401.25;6151564;23;20036;-93
2022/09/22 02:59:40;;;;;;;33.17;20.00;;;;;;;5.94;100.00;102377.81;6151413;23;20005;-93
2022/09/22 03:02:11;;;;;;;33.72;19.77;;;;;;;6.01;100.00;102397.69;6151719;23;20001;-93
2022/09/22 03:04:39;;;;;;;36.30;20.02;;;;;;;6.01;100.00;102394.25;6151687;23;20021;-93
2022/09/22 03:07:06;;;;;;;34.75;20.38;;;;;;;6.00;100.00;102389.97;6152331;23;20087;-93
2022/09/22 03:09:32;;;;;;;36.80;20.08;;;;;;;5.85;100.00;102370.78;6151623;23;20005;-93
2022/09/22 03:12:00;;;;;;;35.80;20.00;;;;;;;5.90;100.00;102368.31;6151407;23;20020;-93
2022/09/22 03:14:29;;;;;;;37.15;20.15;;;;;;;5.88;100.00;102369.97;6151577;23;20442;-92
2022/09/22 03:16:56;;;;;;;33.08;19.77;;;;;;;5.87;100.00;102370.78;6151754;23;20001;-93
2022/09/22 03:19:22;;;;;;;34.47;19.85;;;;;;;5.74;100.00;102345.63;6151060;23;20247;-93
2022/09/22 03:21:48;;;;;;;38.33;20.27;;;;;;;5.93;100.00;102383.81;6151940;23;20144;-92
2022/09/22 03:24:16;;;;;;;34.40;19.50;;;;;;;5.77;100.00;102363.72;6151314;23;20309;-93
2022/09/22 03:26:41;;;;;;;36.10;20.02;;;;;;;5.94;100.00;102388.97;6151585;23;20002;-93
2022/09/22 03:29:09;;;;;;;35.72;19.98;;;;;;;5.77;100.00;102356.00;6151341;23;20033;-92
2022/09/22 03:31:35;;;;;;;36.25;19.75;;;;;;;5.92;100.00;102379.50;6151138;23;20012;-92
2022/09/22 03:34:02;;;;;;;34.92;19.27;;;;;;;5.87;100.00;102371.69;6150002;23;20032;-93
2022/09/22 03:36:28;;;;;;;36.20;19.83;;;;;;;5.89;100.00;102366.56;6151186;23;20006;-93
2022/09/22 03:39:01;;;;;;;36.03;19.73;;;;;;;5.79;100.00;102354.34;6153830;23;20333;-92
2022/09/22 03:41:30;;;;;;;31.48;18.13;;;;;;;5.79;100.00;102356.91;6176319;23;20439;-93
2022/09/22 03:43:59;;;;;;;34.38;19.17;;;;;;;5.77;100.00;102361.16;6151347;23;20005;-93
2022/09/22 03:46:28;;;;;;;33.10;18.80;;;;;;;5.73;100.00;102346.50;6149958;23;20009;-94
2022/09/22 03:48:54;;;;;;;34.75;19.48;;;;;;;5.76;100.00;102359.41;6152357;23;20002;-93
2022/09/22 03:51:19;;;;;;;32.33;18.73;;;;;;;5.69;100.00;102344.69;6150254;23;20005;-94
2022/09/22 03:53:54;;;;;;;37.53;19.52;;;;;;;5.72;100.00;102353.34;6150807;23;20005;-93
2022/09/22 03:56:19;;;;;;;31.90;18.75;;;;;;;5.75;100.00;102355.09;6153062;23;20439;-94
2022/09/22 03:59:02;;;;;;;32.05;17.90;;;;;;;5.83;100.00;102367.28;6153409;23;20012;-93
2022/09/22 04:01:43;;;;;;;33.78;18.52;;;;;;;5.65;100.00;102338.63;6151147;23;20033;-94
2022/09/22 04:04:12;;;;;;;34.72;19.17;;;;;;;5.71;100.00;102353.31;6150888;23;20005;-93
2022/09/22 04:06:43;;;;;;;35.10;18.67;;;;;;;5.80;100.00;102361.22;6151750;23;20009;-93
2022/09/22 04:09:21;;;;;;;34.95;19.75;;;;;;;5.72;100.00;102345.63;6151614;23;20125;-92
2022/09/22 04:11:46;;;;;;;33.15;19.13;;;;;;;5.58;100.00;102321.34;6150127;23;20029;-93
2022/09/22 04:14:12;;;;;;;32.88;18.65;;;;;;;5.82;100.00;102362.97;6150898;23;20334;-92
2022/09/22 04:16:44;;;;;;;36.90;18.60;;;;;;;5.77;100.00;102356.00;6150343;23;20111;-94
2022/09/22 04:19:15;;;;;;;33.63;18.77;;;;;;;5.71;100.00;102341.31;6149477;23;20014;-93
2022/09/22 04:21:48;;;;;;;35.03;18.23;;;;;;;5.60;100.00;102323.91;6152190;23;20001;-93
2022/09/22 04:24:20;;;;;;;32.95;18.65;;;;;;;5.69;100.00;102337.84;6175754;23;20016;-93
2022/09/22 04:26:51;;;;;;;32.78;19.55;;;;;;;5.61;100.00;102328.22;6151446;23;20067;-93
2022/09/22 04:29:26;;;;;;;35.47;20.35;;;;;;;5.64;100.00;102344.59;6175719;23;20045;-93
2022/09/22 04:31:54;;;;;;;37.17;19.02;;;;;;;5.73;100.00;102361.94;6151288;23;20025;-93
2022/09/22 04:34:24;;;;;;;34.70;19.10;;;;;;;5.70;100.00;102349.00;6150125;23;20037;-93
2022/09/22 04:36:50;;;;;;;31.95;18.75;;;;;;;5.48;100.00;102317.69;6150518;23;20032;-92
2022/09/22 04:39:27;;;;;;;34.70;18.38;;;;;;;5.48;100.00;102314.25;6150875;23;20005;-93
2022/09/22 04:41:53;;;;;;;31.17;18.63;;;;;;;5.68;100.00;102342.94;6149307;23;20032;-93
2022/09/22 04:44:29;;;;;;;33.10;19.20;;;;;;;5.55;100.00;102328.97;6149622;23;20375;-93
2022/09/22 04:47:00;;;;;;;34.53;18.40;;;;;;;5.66;100.00;102349.78;6149558;23;20005;-93
2022/09/22 04:49:26;;;;;;;32.35;18.23;;;;;;;5.47;100.00;102315.09;6150047;23;20439;-93
2022/09/22 04:52:20;;;;;;;33.22;18.58;;;;;;;5.50;100.00;102326.31;6150455;23;20077;-93
2022/09/22 04:54:54;;;;;;;33.60;19.45;;;;;;;5.56;100.00;102338.44;6175546;23;20439;-93
2022/09/22 04:57:33;;;;;;;34.47;19.10;;;;;;;5.52;100.00;102332.38;6150067;23;20039;-93
2022/09/22 05:00:01;;;;;;;37.60;19.27;;;;;;;5.63;100.00;102345.44;6149619;23;20014;-93
2022/09/22 05:02:35;;;;;;;34.15;18.88;;;;;;;5.67;100.00;102356.63;6152468;23;20067;-94
2022/09/22 05:05:02;;;;;;;34.83;19.52;;;;;;;5.44;100.00;102322.75;6150106;23;20016;-93
2022/09/22 05:07:33;;;;;;;35.38;20.23;;;;;;;5.46;100.00;102323.63;6150274;23;20012;-93
2022/09/22 05:10:04;;;;;;;34.35;18.90;;;;;;;5.66;100.00;102358.38;6149772;23;20017;-94
2022/09/22 05:12:42;;;;;;;34.35;18.58;;;;;;;5.63;100.00;102353.16;6149824;23;20021;-93
2022/09/22 05:15:31;;;;;;;33.72;19.23;;;;;;;5.59;100.00;102350.50;6148787;23;20010;-92
2022/09/22 05:18:07;;;;;;;32.17;19.17;;;;;;;5.47;100.00;102336.53;6151958;23;20006;-93
2022/09/22 05:20:45;;;;;;;35.80;19.60;;;;;;;5.58;100.00;102354.78;6148973;23;20005;-94
2022/09/22 05:23:11;;;;;;;32.30;18.08;;;;;;;5.57;100.00;102363.31;6173945;23;20068;-95
2022/09/22 05:25:37;;;;;;;35.58;18.88;;;;;;;5.43;100.00;102344.16;6151022;23;20032;-94
2022/09/22 05:28:02;;;;;;;37.15;19.70;;;;;;;5.36;100.00;102326.84;6149919;23;20036;-94
2022/09/22 05:30:31;;;;;;;31.88;19.38;;;;;;;5.50;100.00;102356.31;6148968;23;20012;-93
2022/09/22 05:33:02;;;;;;;32.55;18.70;;;;;;;5.38;100.00;102332.91;6150218;23;20096;-92
2022/09/22 05:35:30;;;;;;;36.60;19.42;;;;;;;5.47;100.00;102349.38;6148766;23;20024;-94
2022/09/22 05:38:01;;;;;;;36.35;19.08;;;;;;;5.55;100.00;102368.41;6152125;23;20016;-92
2022/09/22 05:40:38;;;;;;;35.92;20.25;;;;;;;5.43;100.00;102342.44;6151143;23;20011;-92
2022/09/22 05:43:06;;;;;;;33.13;18.80;;;;;;;5.38;100.00;102340.63;6150373;23;20391;-92
2022/09/22 05:45:50;;;;;;;;;;;;;;;;;;;;;
2022/09/22 05:48:47;;;;;;;36.67;19.42;;;;;;;5.58;100.00;102367.63;6151693;23;20456;-93
2022/09/22 05:51:24;;;;;;;34.03;18.85;;;;;;;5.51;100.00;102361.50;6175825;23;20012;-94
2022/09/22 05:54:00;;;;;;;34.00;18.70;;;;;;;5.52;100.00;102370.94;6150219;23;20005;-94
2022/09/22 05:56:26;;;;;;;35.10;18.33;;;;;;;5.49;100.00;102352.00;6151767;23;20032;-95
2022/09/22 05:59:03;;;;;;;36.05;17.92;;;;;;;5.45;100.00;102350.19;6143862;23;20088;-94
2022/09/22 06:05:00;;;;;;;32.40;18.08;;;;;;;5.65;100.00;102376.34;6156966;23;20133;-94
2022/09/22 06:07:37;;;;;;;45.83;18.45;;;;;;;5.65;100.00;102376.34;6176881;23;20028;-94
2022/09/22 06:10:26;;;;;;;37.40;18.73;;;;;;;5.53;100.00;102367.50;6150099;23;20001;-93
2022/09/22 06:13:07;;;;;;;36.10;18.20;;;;;;;5.47;100.00;102341.66;6088889;23;20038;-93
2022/09/22 06:15:53;;;;;;;33.78;17.83;;;;;;;5.69;100.00;102373.84;6088459;23;20074;-95
2022/09/22 06:18:54;;;;;;;32.38;19.20;;;;;;;5.62;100.00;102350.53;6135561;23;20005;-94
2022/09/22 06:25:01;;;;;;;37.28;19.33;;;;;;;5.70;100.00;102360.16;6139909;23;20028;-95
2022/09/22 06:28:04;;;;;;;37.28;20.85;;;;;;;5.74;100.00;102349.09;6148862;23;20009;-95
2022/09/22 06:30:59;;;;;;;39.75;21.45;;;;;;;5.76;100.00;102349.13;6032319;23;20350;-94
2022/09/22 06:34:18;;;;;;;38.60;20.27;;;;;;;5.81;100.00;102343.22;6031827;23;20129;-95
2022/09/22 06:37:06;;;;;;;36.72;20.60;;;;;;;5.88;100.00;102344.25;6007791;23;20007;-96
2022/09/22 06:42:56;;;;;;;36.97;20.88;;;;;;;6.05;100.00;102348.03;6017786;23;20039;-95
2022/09/22 06:45:46;;;;;;;40.67;23.00;;;;;;;6.08;100.00;102350.63;6115095;23;20005;-95
2022/09/22 06:48:11;;;;;;;43.55;24.02;;;;;;;6.04;100.00;102333.41;6150281;23;20410;-95
2022/09/22 06:51:01;;;;;;;40.30;22.50;;;;;;;6.18;100.00;102347.41;6151481;23;20497;-93
2022/09/22 06:54:03;;;;;;;43.45;24.23;;;;;;;6.25;100.00;102345.81;6147898;23;20379;-93
2022/09/22 06:56:50;;;;;;;42.47;24.13;;;;;;;6.36;100.00;102357.16;6148343;23;20087;-94
2022/09/22 06:59:22;;;;;;;43.50;24.17;;;;;;;6.34;100.00;102343.41;6149036;23;20075;-92
2022/09/22 07:02:05;;;;;;;44.17;24.95;;;;;;;6.44;100.00;102347.88;6172952;23;20009;-94
2022/09/22 07:04:51;;;;;;;42.10;25.70;;;;;;;6.47;100.00;102334.19;6150275;23;20013;-93
2022/09/22 07:07:33;;;;;;;44.38;25.60;;;;;;;6.55;100.00;102332.63;6148551;23;20095;-94
2022/09/22 07:10:02;;;;;;;47.33;26.48;;;;;;;6.54;100.00;102330.88;6122617;23;20454;-94
2022/09/22 07:13:04;;;;;;;47.72;27.00;;;;;;;6.65;100.00;102337.06;6117533;23;20022;-93
2022/09/22 07:15:59;;;;;;;51.75;27.63;;;;;;;6.85;100.00;102356.28;6056389;23;20010;-92
2022/09/22 07:18:40;;;;;;;46.55;26.90;;;;;;;6.80;100.00;102331.28;6118521;23;20150;-94
2022/09/22 07:21:14;;;;;;;49.65;25.98;;;;;;;6.78;100.00;102322.66;6060033;23;20007;-94
2022/09/22 07:24:00;;;;;;;49.70;29.08;;;;;;;6.91;100.00;102330.59;6060304;23;20022;-94
2022/09/22 07:27:05;;;;;;;46.95;27.20;;;;;;;6.93;100.00;102336.66;6060113;23;20124;-94
2022/09/22 07:30:02;;;;;;;46.63;26.20;;;;;;;7.17;100.00;102364.50;6058847;23;20487;-93
2022/09/22 07:33:02;;;;;;;46.20;26.38;;;;;;;7.22;100.00;102359.44;6062066;23;20011;-94
2022/09/22 07:36:22;;;;;;;;;;;;;;;;;;;;;
2022/09/22 07:39:24;;;;;;;52.17;28.52;;;;;;;7.42;100.00;102358.88;6062001;23;20441;-95
2022/09/22 07:42:12;;;;;;;51.10;28.40;;;;;;;7.37;100.00;102329.53;6029203;23;20537;-94
2022/09/22 07:57:39;;;;;;;44.72;26.88;;;;;;;7.94;100.00;102362.09;6125533;23;20434;-94
2022/09/22 08:03:03;;;;;;;48.38;28.10;;;;;;;8.01;100.00;102343.22;6152533;23;20010;-95
2022/09/22 08:05:48;;;;;;;55.22;30.23;;;;;;;8.04;100.00;102327.78;6126352;23;20001;-93
2022/09/22 08:08:13;;;;;;;48.70;28.83;;;;;;;8.23;100.00;102326.25;6126212;23;20076;-94
2022/09/22 08:11:00;;;;;;;49.60;30.40;;;;;;;8.49;100.00;102329.97;6150605;23;20343;-95
2022/09/22 08:16:35;;;;;;;52.00;30.55;;;;;;;9.09;100.00;102314.03;6109982;23;20064;-94
2022/09/22 08:19:14;;;;;;;50.85;29.52;;;;;;;9.66;100.00;102345.38;6126354;23;20064;-94
2022/09/22 08:21:47;;;;;;;48.92;29.25;;;;;;;9.94;100.00;102310.94;6126001;23;20084;-94
2022/09/22 08:24:50;;;;;;;45.65;28.65;;;;;;;10.41;100.00;102336.09;6125043;23;20009;-95
2022/09/22 08:30:44;;;;;;;38.78;25.15;;;;;;;10.85;100.00;102336.13;6034368;23;20042;-93
2022/09/22 08:33:39;;;;;;;40.08;25.08;;;;;;;10.91;100.00;102323.16;6126897;23;20006;-94
2022/09/22 08:36:17;;;;;;;40.42;26.00;;;;;;;10.95;100.00;102317.94;6129462;23;20009;-94
2022/09/22 08:39:03;;;;;;;37.13;23.90;;;;;;;11.15;99.53;102336.06;6127460;23;20040;-94
2022/09/22 08:42:04;;;;;;;38.65;24.48;;;;;;;11.08;100.00;102309.25;6126742;23;20004;-95
2022/09/22 08:45:32;;;;;;;36.42;22.27;;;;;;;11.21;99.71;102307.50;6012454;23;20033;-95
2022/09/22 08:54:01;;;;;;;34.88;23.08;;;;;;;11.32;99.19;102304.88;6004905;23;20027;-95
2022/09/22 08:56:57;;;;;;;37.38;23.55;;;;;;;11.52;99.20;102336.84;6004494;23;20007;-95
2022/09/22 09:00:31;;;;;;;39.78;23.45;;;;;;;11.47;99.57;102313.47;6004510;23;20047;-94
2022/09/22 09:03:22;;;;;;;33.65;22.67;;;;;;;11.68;97.05;102335.88;5919001;24;20009;-96
2022/09/22 09:06:03;;;;;;;36.83;22.52;;;;;;;11.82;98.46;102335.84;5921203;24;20015;-95
2022/09/22 09:09:03;;;;;;;33.45;21.38;;;;;;;11.92;96.66;102332.34;5999472;23;20051;-95
2022/09/22 09:11:56;;;;;;;34.25;22.83;;;;;;;11.90;96.64;102310.69;6055260;23;20017;-95
2022/09/22 09:15:03;;;;;;;32.22;21.92;;;;;;;12.21;96.25;102335.63;6150682;23;20005;-94
2022/09/22 09:17:38;;;;;;;34.10;22.13;;;;;;;12.15;94.42;102307.06;6150763;23;20032;-95
2022/09/22 09:20:35;;;;;;;35.47;22.15;;;;;;;12.37;95.10;102320.78;6151159;23;20005;-95
2022/09/22 09:23:11;;;;;;;31.65;21.92;;;;;;;12.46;94.20;102319.84;6150392;23;20002;-94
2022/09/22 09:25:41;;;;;;;32.70;21.27;;;;;;;12.57;91.36;102318.03;6150826;23;20036;-95
2022/09/22 09:28:35;;;;;;;32.92;22.15;;;;;;;12.79;93.63;102305.69;6176305;23;20005;-95
2022/09/22 09:31:36;;;;;;;32.08;21.77;;;;;;;13.09;92.99;102331.44;6158611;23;20009;-96
2022/09/22 09:34:04;;;;;;;31.50;21.05;;;;;;;13.21;89.28;102331.34;6150700;23;20006;-95
2022/09/22 09:37:08;;;;;;;30.85;20.60;;;;;;;13.20;89.51;102305.31;6150151;23;20084;-94
2022/09/22 09:39:52;;;;;;;30.50;20.60;;;;;;;13.47;89.79;102317.13;6147231;23;20455;-94
2022/09/22 09:42:33;;;;;;;27.75;20.10;;;;;;;13.65;88.22;102322.13;6151044;23;20316;-96
2022/09/22 09:45:02;;;;;;;31.40;20.52;;;;;;;13.70;88.17;102321.19;6175929;23;20080;-95
2022/09/22 09:48:06;;;;;;;32.88;20.90;;;;;;;13.82;90.10;102317.56;6150918;23;20029;-95
2022/09/22 09:50:48;;;;;;;;;;;;;;;;;;;;;
2022/09/22 09:53:59;;;;;;;30.52;19.95;;;;;;;14.02;88.37;102299.03;6152752;23;20360;-96
2022/09/22 09:56:42;;;;;;;;;;;;;;;;;;;;;
2022/09/22 10:02:03;;;;;;;29.95;19.90;;;;;;;14.51;86.19;102307.00;6152638;23;20044;-95
2022/09/22 10:04:36;;;;;;;18.57;13.03;;;;;;;14.61;81.25;102291.13;6151492;23;20072;-96
2022/09/22 10:07:15;;;;;;;17.92;14.00;;;;;;;14.84;83.38;102309.03;6151300;23;20335;-94
2022/09/22 10:09:42;;;;;;;19.40;14.25;;;;;;;15.01;78.47;102321.78;6149896;23;20019;-92
2022/09/22 10:12:31;;;;;;;23.75;14.73;;;;;;;15.09;82.30;102314.66;6149831;23;20010;-91
2022/09/22 10:15:24;;;;;;;21.77;13.50;;;;;;;15.02;81.78;102290.41;6174923;23;20098;-92
2022/09/22 10:17:58;;;;;;;17.23;11.95;;;;;;;15.01;77.29;102291.28;6150508;23;20016;-92
2022/09/22 10:20:30;;;;;;;14.43;11.40;;;;;;;15.14;70.79;102288.47;6150023;23;20009;-91
2022/09/22 10:23:21;;;;;;;19.25;11.65;;;;;;;15.20;77.37;102281.38;6150267;23;20002;-92
2022/09/22 10:25:49;;;;;;;14.98;10.18;;;;;;;15.34;74.71;102291.53;6149873;23;20431;-92
2022/09/22 10:28:20;;;;;;;20.40;10.57;;;;;;;15.43;73.27;102286.97;6150382;23;20025;-91
2022/09/22 10:31:02;;;;;;;15.85;11.10;;;;;;;15.55;76.38;102283.28;6149665;23;20040;-91
2022/09/22 10:33:31;;;;;;;15.77;10.07;;;;;;;15.69;71.41;102286.44;6150212;23;20649;-91
2022/09/22 10:36:02;;;;;;;16.63;10.27;;;;;;;15.84;71.05;102294.84;6151822;23;20005;-91
2022/09/22 10:38:31;;;;;;;15.90;9.98;;;;;;;15.79;68.64;102294.94;6151984;23;20028;-96
2022/09/22 10:41:11;;;;;;;16.17;9.52;;;;;;;15.71;70.09;102268.97;6177828;23;20009;-95
2022/09/22 10:43:39;;;;;;;14.65;9.13;;;;;;;15.88;67.99;102280.81;6176212;23;20068;-94
2022/09/22 10:46:28;;;;;;;13.35;8.15;;;;;;;15.87;73.85;102269.50;6151039;23;20136;-94
2022/09/22 10:49:02;;;;;;;8.40;5.55;;;;;;;15.87;63.41;102269.50;6150796;23;20016;-95
2022/09/22 10:51:53;;;;;;;7.78;5.30;;;;;;;15.97;69.51;102277.97;6152333;23;20080;-94
2022/09/22 10:54:56;;;;;;;9.85;5.97;;;;;;;16.07;71.07;102269.91;6150930;23;20316;-94
2022/09/22 10:57:23;;;;;;;7.55;5.00;;;;;;;16.15;65.05;102274.94;6151124;23;20010;-94
2022/09/22 11:00:14;;;;;;;8.73;6.22;;;;;;;16.14;64.76;102270.59;6151251;23;20013;-95
2022/09/22 11:03:10;;;;;;;9.80;6.30;;;;;;;16.11;66.76;102271.53;6177439;23;20494;-95
2022/09/22 11:14:57;;;;;;;7.55;5.63;;;;;;;16.39;66.97;102263.00;6152936;23;20108;-91
2022/09/22 11:18:01;;;;;;;9.88;5.80;;;;;;;16.33;67.03;102247.47;6127417;23;20080;-91
2022/09/22 11:20:31;;;;;;;9.15;5.65;;;;;;;16.27;64.96;102229.31;6145580;23;20009;-91
2022/09/22 11:22:59;;;;;;;7.20;5.10;;;;;;;16.38;64.33;102256.91;6127482;23;20052;-91
2022/09/22 11:25:25;;;;;;;9.77;5.38;;;;;;;16.34;61.79;102254.41;6126449;23;20047;-91
2022/09/22 11:28:02;;;;;;;9.30;5.10;;;;;;;16.39;63.66;102258.63;6153214;23;20009;-91
2022/09/22 11:30:46;;;;;;;9.75;5.80;;;;;;;16.34;63.22;102234.34;6153261;23;20016;-91
2022/09/22 11:33:30;;;;;;;8.13;5.13;;;;;;;16.55;62.69;102246.03;6151458;23;20036;-91
2022/09/22 11:36:15;;;;;;;8.93;4.80;;;;;;;16.64;60.00;102242.34;6150697;23;20009;-91
2022/09/22 11:39:34;;;;;;;7.35;3.97;;;;;;;16.53;67.05;102214.63;6067383;23;20237;-95
2022/09/22 11:42:27;;;;;;;7.63;3.35;;;;;;;16.73;63.07;102244.69;6152839;23;20338;-94
2022/09/22 11:45:20;;;;;;;7.43;4.35;;;;;;;16.67;61.89;102206.44;6154185;23;20008;-94
2022/09/22 11:48:10;;;;;;;7.03;4.10;;;;;;;16.82;63.25;102233.97;6127349;23;20343;-96
2022/09/22 11:51:08;;;;;;;7.75;4.20;;;;;;;16.91;61.80;102218.03;6127544;23;20088;-95
2022/09/22 11:54:09;;;;;;;7.50;4.40;;;;;;;16.87;59.54;102222.47;6154626;23;20009;-94
2022/09/22 11:56:41;;;;;;;5.38;3.78;;;;;;;16.54;62.77;102199.78;6063783;23;20035;-94
2022/09/22 11:59:34;;;;;;;5.50;3.40;;;;;;;16.45;66.56;102211.34;6152443;23;20451;-94
2022/09/22 12:02:28;;;;;;;4.85;3.00;;;;;;;16.54;66.57;102215.50;6149166;23;20001;-95
2022/09/22 12:05:03;;;;;;;9.70;3.33;;;;;;;16.46;62.36;102197.38;6149012;23;20016;-94
2022/09/22 12:07:46;;;;;;;;;;;;;;;;;;;;;
2022/09/22 12:10:34;;;;;;;5.57;2.72;;;;;;;16.57;62.14;102171.78;6153411;23;20460;-95
2022/09/22 12:13:01;;;;;;;4.40;2.70;;;;;;;16.74;58.28;102191.44;6171391;23;20014;-94
2022/09/22 12:15:39;;;;;;;4.47;2.83;;;;;;;16.87;57.96;102184.94;6153384;23;20040;-95
2022/09/22 12:18:24;;;;;;;3.53;2.50;;;;;;;16.80;58.38;102162.44;6176707;23;20008;-94
2022/09/22 12:21:17;;;;;;;4.75;2.22;;;;;;;16.81;58.94;102156.31;6175799;23;20010;-95
2022/09/22 12:23:48;;;;;;;4.63;2.85;;;;;;;16.80;55.66;102157.22;6139260;23;20012;-94
2022/09/22 12:26:36;;;;;;;4.53;2.67;;;;;;;16.94;61.51;102160.28;6151772;23;20025;-94
2022/09/22 12:29:22;;;;;;;5.70;3.25;;;;;;;16.92;56.28;102147.22;6152020;23;20067;-95
2022/09/22 12:31:50;;;;;;;4.75;3.20;;;;;;;16.89;55.77;102146.47;6176568;23;20040;-95
2022/09/22 12:34:18;;;;;;;6.03;3.30;;;;;;;17.01;57.55;102172.31;6152488;23;20057;-94
2022/09/22 12:36:53;;;;;;;5.45;3.30;;;;;;;16.78;59.10;102148.56;6176362;23;20009;-94
2022/09/22 12:39:30;;;;;;;6.50;3.28;;;;;;;16.71;60.00;102157.50;6152042;23;20001;-93
2022/09/22 12:41:58;;;;;;;8.35;3.45;;;;;;;16.65;59.23;102170.75;6153492;23;19998;-95
2022/09/22 12:44:48;;;;;;;11.52;3.63;;;;;;;16.34;61.85;102136.66;6151250;23;20313;-94
2022/09/22 12:47:35;;;;;;;6.78;3.50;;;;;;;16.27;63.04;102154.28;6151682;23;20099;-95
2022/09/22 12:50:29;;;;;;;7.95;3.42;;;;;;;16.07;61.56;102133.88;6151336;23;20376;-95
2022/09/22 12:53:07;;;;;;;7.55;3.50;;;;;;;15.92;60.77;102123.78;6133920;23;20006;-94
2022/09/22 12:55:39;;;;;;;5.88;3.35;;;;;;;15.90;59.67;102122.97;6175811;23;20435;-94
2022/09/22 12:58:23;;;;;;;6.43;2.90;;;;;;;15.97;63.21;102142.84;6153053;23;20498;-95
2022/09/22 13:00:56;;;;;;;6.13;3.50;;;;;;;15.85;61.32;102134.44;6151279;23;20020;-94
2022/09/22 13:03:24;;;;;;;6.30;3.58;;;;;;;15.98;61.68;102138.47;6152611;23;19998;-94